Time;durP1;ratioP1;P1;durP2;ratioP2;P2;SDS_P1;SDS_P2;PMS_P1;PMS_P2;Temp;Humidity;BMP_temperature;BMP_pressure;BME280_temperature;BME280_humidity;BME280_pressure;Samples;Min_cycle;Max_cycle;Signal;HPM_P1;HPM_P2
2021/03/10 00:00:07;;;;;;;57.20;53.60;;;4.50;99.90;;;;;;6136541;23;20417;-82
2021/03/10 00:02:35;;;;;;;55.97;52.33;;;4.60;99.90;;;;;;6126517;23;20410;-82
2021/03/10 00:05:05;;;;;;;49.60;46.57;;;4.50;99.90;;;;;;6136696;23;20681;-82
2021/03/10 00:07:31;;;;;;;44.57;41.47;;;4.60;99.90;;;;;;6125434;23;20485;-82
2021/03/10 00:09:58;;;;;;;43.70;40.50;;;4.60;99.90;;;;;;6126259;23;20407;-82
2021/03/10 00:12:25;;;;;;;47.03;43.73;;;4.60;99.90;;;;;;6136747;23;20419;-82
2021/03/10 00:14:59;;;;;;;47.50;44.20;;;4.60;99.90;;;;;;6136241;23;20422;-82
2021/03/10 00:17:26;;;;;;;54.50;51.20;;;4.60;99.90;;;;;;6136776;23;20411;-83
2021/03/10 00:19:54;;;;;;;62.50;58.70;;;4.60;99.90;;;;;;6126686;23;20407;-82
2021/03/10 00:22:22;;;;;;;66.73;62.80;;;4.40;99.90;;;;;;6134974;23;20439;-83
2021/03/10 00:24:48;;;;;;;75.93;71.40;;;4.40;99.90;;;;;;6126860;23;20414;-82
2021/03/10 00:27:24;;;;;;;84.00;79.67;;;4.50;99.90;;;;;;6126529;23;20473;-82
2021/03/10 00:29:52;;;;;;;85.60;81.07;;;4.40;99.90;;;;;;6135950;23;20414;-82
2021/03/10 00:32:19;;;;;;;94.57;89.37;;;4.40;99.90;;;;;;6136459;23;20761;-82
2021/03/10 00:34:46;;;;;;;100.03;94.53;;;4.40;99.90;;;;;;6126244;23;20459;-82
2021/03/10 00:37:16;;;;;;;103.23;97.03;;;4.30;99.90;;;;;;6125122;23;20418;-82
2021/03/10 00:39:48;;;;;;;102.87;97.47;;;4.30;99.90;;;;;;6136386;23;20435;-82
2021/03/10 00:42:14;;;;;;;102.10;96.20;;;4.30;99.90;;;;;;6135992;23;20489;-82
2021/03/10 00:44:41;;;;;;;102.80;97.00;;;4.20;99.90;;;;;;6126175;23;20958;-82
2021/03/10 00:47:09;;;;;;;98.03;92.43;;;4.10;99.90;;;;;;6126110;23;20493;-82
2021/03/10 00:49:36;;;;;;;101.57;95.57;;;4.20;99.90;;;;;;6126437;23;20410;-82
2021/03/10 00:52:06;;;;;;;102.80;96.73;;;4.30;99.90;;;;;;6134436;23;20721;-83
2021/03/10 00:54:34;;;;;;;104.20;98.57;;;4.20;99.90;;;;;;6136150;23;20443;-82
2021/03/10 00:57:02;;;;;;;106.17;100.77;;;4.20;99.90;;;;;;6136078;23;20446;-82
2021/03/10 00:59:30;;;;;;;107.33;101.27;;;4.10;99.90;;;;;;6125754;23;20453;-82
2021/03/10 01:01:57;;;;;;;108.57;102.67;;;3.90;99.90;;;;;;6126083;23;20403;-82
2021/03/10 01:04:24;;;;;;;105.40;100.10;;;3.90;99.90;;;;;;6126365;23;20496;-83
2021/03/10 01:06:51;;;;;;;114.67;109.10;;;3.70;99.90;;;;;;6134446;23;20446;-82
2021/03/10 01:09:20;;;;;;;108.50;103.10;;;3.60;99.90;;;;;;6136126;23;20426;-82
2021/03/10 01:11:48;;;;;;;122.23;116.00;;;3.50;99.90;;;;;;6138333;23;20501;-82
2021/03/10 01:14:15;;;;;;;142.83;136.20;;;3.50;99.90;;;;;;6128361;23;20407;-82
2021/03/10 01:16:42;;;;;;;140.70;133.80;;;3.30;99.90;;;;;;6128090;23;20970;-82
2021/03/10 01:19:12;;;;;;;144.43;137.37;;;3.40;99.90;;;;;;6128420;23;20443;-82
2021/03/10 01:21:42;;;;;;;149.33;141.90;;;3.30;99.90;;;;;;6126852;23;20478;-82
2021/03/10 01:24:12;;;;;;;159.00;151.37;;;3.40;99.90;;;;;;6138017;23;20946;-82
2021/03/10 01:26:39;;;;;;;162.63;154.73;;;3.30;99.90;;;;;;6128191;23;20471;-82
2021/03/10 01:29:07;;;;;;;166.10;158.10;;;3.40;99.90;;;;;;6137626;23;20426;-82
2021/03/10 01:31:35;;;;;;;169.30;161.13;;;3.30;99.90;;;;;;6128347;23;20403;-82
2021/03/10 01:34:02;;;;;;;167.87;159.77;;;3.40;99.90;;;;;;6127960;23;20900;-82
2021/03/10 01:36:29;;;;;;;170.73;162.40;;;3.60;99.90;;;;;;6136449;23;20410;-82
2021/03/10 01:38:58;;;;;;;178.50;169.80;;;3.60;99.90;;;;;;6137849;23;20414;-82
2021/03/10 01:41:24;;;;;;;172.90;163.40;;;3.70;99.90;;;;;;6137428;23;20474;-82
2021/03/10 01:43:52;;;;;;;165.53;157.57;;;3.70;99.90;;;;;;6138000;23;20418;-82
2021/03/10 01:46:26;;;;;;;155.67;148.30;;;3.60;99.90;;;;;;6128021;23;20442;-82
2021/03/10 01:48:55;;;;;;;154.70;147.23;;;3.70;99.90;;;;;;6127809;23;20439;-82
2021/03/10 01:51:22;;;;;;;147.97;140.87;;;3.70;99.90;;;;;;6126701;23;20870;-82
2021/03/10 01:53:51;;;;;;;137.93;130.97;;;3.80;99.90;;;;;;6130752;23;20407;-83
2021/03/10 01:56:22;;;;;;;129.73;123.53;;;3.90;99.90;;;;;;6137485;23;20477;-82
2021/03/10 01:58:48;;;;;;;117.60;111.67;;;4.00;99.90;;;;;;6127818;23;20430;-82
2021/03/10 02:01:15;;;;;;;102.17;96.77;;;4.20;99.90;;;;;;6128029;23;20410;-82
2021/03/10 02:03:46;;;;;;;87.60;82.30;;;4.20;99.90;;;;;;6130750;23;20403;-83
2021/03/10 02:06:24;;;;;;;76.10;72.00;;;4.20;99.90;;;;;;6125935;23;20917;-82
2021/03/10 02:08:58;;;;;;;66.43;62.63;;;4.40;99.90;;;;;;6137659;23;20411;-82
2021/03/10 02:11:35;;;;;;;59.37;55.33;;;4.30;99.90;;;;;;6137189;23;20741;-82
2021/03/10 02:14:19;;;;;;;43.23;40.17;;;4.50;99.90;;;;;;6127791;23;20871;-82
2021/03/10 02:16:54;;;;;;;36.77;34.27;;;4.50;99.90;;;;;;6127288;23;20411;-82
2021/03/10 02:20:00;;;;;;;34.30;31.70;;;4.60;99.90;;;;;;6127554;23;20485;-82
2021/03/10 02:22:51;;;;;;;31.07;28.57;;;4.70;99.90;;;;;;6095542;23;20550;-83
2021/03/10 02:25:37;;;;;;;27.70;25.00;;;4.60;99.90;;;;;;6136846;23;20722;-82
2021/03/10 02:28:06;;;;;;;26.17;23.80;;;4.60;99.90;;;;;;6127640;23;20445;-82
2021/03/10 02:30:39;;;;;;;29.70;26.90;;;4.60;99.90;;;;;;6136951;23;20972;-82
2021/03/10 02:33:12;;;;;;;32.57;29.20;;;4.70;99.90;;;;;;6138169;23;20417;-82
2021/03/10 02:35:46;;;;;;;31.20;27.97;;;4.70;99.90;;;;;;6136895;23;20436;-82
2021/03/10 02:38:29;;;;;;;32.57;29.43;;;4.80;99.90;;;;;;6135420;23;20914;-83
2021/03/10 02:40:57;;;;;;;36.10;32.53;;;4.70;99.90;;;;;;6136862;23;20449;-82
2021/03/10 02:43:28;;;;;;;42.83;38.70;;;4.70;99.90;;;;;;6127251;23;20406;-82
2021/03/10 02:45:55;;;;;;;42.67;38.40;;;4.50;99.90;;;;;;6127379;23;20427;-83
2021/03/10 02:48:25;;;;;;;43.30;39.20;;;4.40;99.90;;;;;;6136899;23;20407;-83
2021/03/10 02:50:55;;;;;;;45.77;41.87;;;4.40;99.90;;;;;;6137235;23;20415;-82
2021/03/10 02:53:25;;;;;;;51.40;47.07;;;4.20;99.90;;;;;;6126130;23;20403;-82
2021/03/10 02:55:52;;;;;;;66.83;60.97;;;4.10;99.90;;;;;;6136926;23;20905;-82
2021/03/10 02:58:29;;;;;;;94.40;88.27;;;3.90;99.90;;;;;;6127341;23;20402;-82
2021/03/10 03:00:57;;;;;;;103.03;97.00;;;4.00;99.90;;;;;;6136892;23;20414;-82
2021/03/10 03:03:23;;;;;;;109.47;102.90;;;3.90;99.90;;;;;;6127232;23;20745;-82
2021/03/10 03:06:04;;;;;;;117.80;111.10;;;3.70;99.90;;;;;;6126942;23;20945;-82
2021/03/10 03:08:33;;;;;;;136.27;127.67;;;3.70;99.90;;;;;;6126624;23;20403;-82
2021/03/10 03:11:03;;;;;;;146.23;137.93;;;3.60;99.90;;;;;;6126832;23;20403;-82
2021/03/10 03:13:34;;;;;;;160.97;152.07;;;3.50;99.90;;;;;;6126768;23;20490;-82
2021/03/10 03:16:02;;;;;;;154.03;145.23;;;3.40;99.90;;;;;;6127266;23;20771;-82
2021/03/10 03:18:29;;;;;;;156.77;147.40;;;3.20;99.90;;;;;;6136958;23;20879;-82
2021/03/10 03:21:01;;;;;;;159.03;150.40;;;3.10;99.90;;;;;;6136519;23;20431;-82
2021/03/10 03:23:30;;;;;;;159.70;150.60;;;2.90;99.90;;;;;;6126094;23;20450;-82
2021/03/10 03:25:57;;;;;;;170.43;160.23;;;2.90;99.90;;;;;;6127143;23;20526;-82
2021/03/10 03:28:26;;;;;;;171.87;161.77;;;2.70;99.90;;;;;;6127148;23;20407;-81
2021/03/10 03:31:00;;;;;;;194.20;183.50;;;2.70;99.90;;;;;;6127043;23;20399;-82
2021/03/10 03:33:35;;;;;;;191.77;179.93;;;2.60;99.90;;;;;;6136597;23;20415;-82
2021/03/10 03:36:04;;;;;;;214.37;201.77;;;2.60;99.90;;;;;;6126595;23;20898;-82
2021/03/10 03:38:31;;;;;;;222.63;210.93;;;2.50;99.90;;;;;;6136190;23;20411;-82
2021/03/10 03:41:01;;;;;;;233.67;220.77;;;2.70;99.90;;;;;;6136521;23;20407;-82
2021/03/10 03:43:28;;;;;;;241.23;228.37;;;2.60;99.90;;;;;;6136407;23;20413;-82
2021/03/10 03:46:06;;;;;;;;;;;;;;;;;;;;;
2021/03/10 03:48:36;;;;;;;259.77;244.77;;;2.70;99.90;;;;;;6100445;23;20430;-82
2021/03/10 03:51:06;;;;;;;261.37;247.27;;;2.70;99.90;;;;;;6136238;23;20855;-82
2021/03/10 03:53:34;;;;;;;276.53;262.03;;;2.80;99.90;;;;;;6135955;23;20928;-83
2021/03/10 03:56:02;;;;;;;277.93;263.67;;;2.80;99.90;;;;;;6126400;23;20411;-82
2021/03/10 03:58:35;;;;;;;281.38;267.13;;;2.90;99.90;;;;;;6126445;23;20406;-81
2021/03/10 04:01:03;;;;;;;281.80;266.83;;;2.90;99.90;;;;;;6135759;23;20160;-82
2021/03/10 04:03:29;;;;;;;285.33;269.30;;;2.90;99.90;;;;;;6126172;23;20486;-82
2021/03/10 04:05:58;;;;;;;280.47;265.67;;;2.80;99.90;;;;;;6126524;23;20427;-82
2021/03/10 04:08:28;;;;;;;276.40;260.97;;;2.80;99.90;;;;;;6135429;23;20407;-81
2021/03/10 04:10:58;;;;;;;286.63;269.80;;;2.90;99.90;;;;;;6126242;23;20499;-82
2021/03/10 04:13:26;;;;;;;291.37;274.23;;;2.90;99.90;;;;;;6126604;23;20434;-82
2021/03/10 04:15:52;;;;;;;297.33;280.83;;;3.00;99.90;;;;;;6126602;23;20407;-83
2021/03/10 04:18:38;;;;;;;;;;;;;;;;;;;;;
2021/03/10 04:21:08;;;;;;;333.97;313.57;;;3.30;99.90;;;;;;6125595;23;20430;-82
2021/03/10 04:23:37;;;;;;;320.83;301.97;;;3.30;99.90;;;;;;6135871;23;20470;-80
2021/03/10 04:26:04;;;;;;;331.57;312.77;;;3.50;99.90;;;;;;6126178;23;20439;-82
2021/03/10 04:28:30;;;;;;;327.03;309.13;;;3.70;99.90;;;;;;6136178;23;20411;-82
2021/03/10 04:31:06;;;;;;;312.80;296.67;;;3.80;99.90;;;;;;6126318;23;20407;-82
2021/03/10 04:33:46;;;;;;;299.40;283.43;;;3.70;99.90;;;;;;6126525;23;20969;-83
2021/03/10 04:36:24;;;;;;;294.37;278.50;;;3.70;99.90;;;;;;6124488;23;20962;-82
2021/03/10 04:38:51;;;;;;;285.50;270.47;;;3.80;99.90;;;;;;6136082;23;20728;-82
2021/03/10 04:41:23;;;;;;;285.10;268.70;;;3.70;99.90;;;;;;6126597;23;20693;-83
2021/03/10 04:43:50;;;;;;;277.37;261.63;;;3.80;99.90;;;;;;6126309;23;20395;-83
2021/03/10 04:46:17;;;;;;;288.07;271.50;;;3.70;99.90;;;;;;6135918;23;20446;-83
2021/03/10 04:48:47;;;;;;;278.60;263.10;;;3.80;99.90;;;;;;6126480;23;20403;-83
2021/03/10 04:51:14;;;;;;;276.60;259.93;;;3.80;99.90;;;;;;6134625;23;20414;-84
2021/03/10 04:53:42;;;;;;;277.07;260.40;;;3.80;99.90;;;;;;6126559;23;20732;-83
2021/03/10 04:56:08;;;;;;;285.47;267.43;;;3.80;99.90;;;;;;6125795;23;20530;-82
2021/03/10 04:58:35;;;;;;;284.30;266.77;;;3.90;99.90;;;;;;6136055;23;20906;-82
2021/03/10 05:01:01;;;;;;;284.47;267.67;;;4.00;99.90;;;;;;6126294;23;20407;-82
2021/03/10 05:03:29;;;;;;;283.20;266.37;;;4.10;99.90;;;;;;6135713;23;20403;-83
2021/03/10 05:05:58;;;;;;;288.43;270.73;;;4.10;99.90;;;;;;6125852;23;20430;-82
2021/03/10 05:08:27;;;;;;;300.30;282.00;;;4.20;99.90;;;;;;6134497;23;20415;-83
2021/03/10 05:10:54;;;;;;;280.23;262.70;;;4.20;99.90;;;;;;6126013;23;20415;-82
2021/03/10 05:13:22;;;;;;;268.07;252.37;;;4.30;99.90;;;;;;6126082;23;20403;-82
2021/03/10 05:15:50;;;;;;;267.77;251.07;;;4.40;99.90;;;;;;6125910;23;20403;-83
2021/03/10 05:18:17;;;;;;;252.00;236.37;;;4.30;99.90;;;;;;6126014;23;20407;-82
2021/03/10 05:20:45;;;;;;;264.07;248.00;;;4.40;99.90;;;;;;6126071;23;20466;-82
2021/03/10 05:23:27;;;;;;;;;;;;;;;;;;;;;
2021/03/10 05:25:57;;;;;;;253.00;236.20;;;4.30;99.90;;;;;;6135365;23;20429;-83
2021/03/10 05:28:23;;;;;;;257.53;241.17;;;4.40;99.90;;;;;;6126170;23;20403;-83
2021/03/10 05:30:51;;;;;;;238.57;223.77;;;4.30;99.90;;;;;;6125805;23;20545;-83
2021/03/10 05:33:17;;;;;;;243.70;227.47;;;4.30;99.90;;;;;;6136059;23;20411;-83
2021/03/10 05:35:45;;;;;;;242.60;226.93;;;4.30;99.90;;;;;;6125998;23;20462;-83
2021/03/10 05:38:48;;;;;;;244.53;228.13;;;4.30;99.90;;;;;;6124603;23;20399;-82
2021/03/10 05:41:16;;;;;;;243.70;227.33;;;4.40;99.90;;;;;;6007771;23;20809;-82
2021/03/10 05:43:45;;;;;;;241.40;225.10;;;4.50;99.90;;;;;;6096941;23;20418;-82
2021/03/10 05:46:16;;;;;;;241.37;225.77;;;4.40;99.90;;;;;;6125685;23;20433;-82
2021/03/10 05:48:43;;;;;;;237.83;221.80;;;4.30;99.90;;;;;;6126209;23;20446;-82
2021/03/10 05:51:16;;;;;;;236.77;221.53;;;4.50;99.90;;;;;;6124699;23;20403;-83
2021/03/10 05:53:45;;;;;;;234.23;219.10;;;4.40;99.90;;;;;;6135613;23;20411;-83
2021/03/10 05:56:14;;;;;;;221.73;206.83;;;4.40;99.90;;;;;;6126800;23;20446;-83
2021/03/10 06:02:14;;;;;;;225.10;210.80;;;4.40;99.90;;;;;;6126449;23;20494;-82
2021/03/10 06:04:53;;;;;;;222.07;207.17;;;4.30;99.90;;;;;;6137693;23;20429;-83
2021/03/10 06:10:45;;;;;;;;;;;;;;;;;;;;;
2021/03/10 06:13:34;;;;;;;224.40;209.57;;;4.30;99.90;;;;;;6101560;23;20410;-83
2021/03/10 06:16:04;;;;;;;219.60;204.80;;;4.40;99.90;;;;;;6127875;23;20769;-82
2021/03/10 06:18:35;;;;;;;219.23;204.90;;;4.40;99.90;;;;;;6127631;23;20406;-83
2021/03/10 06:21:07;;;;;;;221.27;207.43;;;4.50;99.90;;;;;;6127657;23;20921;-82
2021/03/10 06:23:35;;;;;;;217.73;202.87;;;4.40;99.90;;;;;;6140156;23;20437;-83
2021/03/10 06:26:01;;;;;;;211.50;197.20;;;4.50;99.90;;;;;;6136541;23;20563;-82
2021/03/10 06:28:37;;;;;;;212.77;198.90;;;4.50;99.90;;;;;;6137318;23;20407;-83
2021/03/10 06:31:16;;;;;;;208.53;195.23;;;4.60;99.90;;;;;;6126938;23;20406;-82
2021/03/10 06:33:44;;;;;;;209.37;194.87;;;4.60;99.90;;;;;;6139926;23;20421;-82
2021/03/10 06:36:23;;;;;;;204.50;190.97;;;4.60;99.90;;;;;;6126098;23;20415;-84
2021/03/10 06:38:52;;;;;;;198.90;186.00;;;4.70;99.90;;;;;;6136717;23;20765;-82
2021/03/10 06:41:28;;;;;;;205.83;191.37;;;4.70;99.90;;;;;;6136552;23;20510;-83
2021/03/10 06:43:56;;;;;;;197.37;183.17;;;4.80;99.90;;;;;;6126556;23;20407;-82
2021/03/10 06:46:23;;;;;;;196.03;182.63;;;4.80;99.90;;;;;;6136983;23;20427;-81
2021/03/10 06:48:54;;;;;;;189.50;176.10;;;4.80;99.90;;;;;;6127019;23;20911;-82
2021/03/10 06:51:21;;;;;;;182.07;169.10;;;4.90;99.90;;;;;;6126116;23;20838;-81
2021/03/10 06:53:48;;;;;;;184.57;170.40;;;5.00;99.90;;;;;;6127491;23;20407;-81
2021/03/10 06:56:22;;;;;;;173.93;161.60;;;4.90;99.90;;;;;;6127221;23;20447;-82
2021/03/10 06:59:04;;;;;;;167.43;154.67;;;5.10;99.90;;;;;;6137241;23;20481;-81
2021/03/10 07:01:41;;;;;;;165.53;153.10;;;5.00;99.90;;;;;;6137070;23;20414;-81
2021/03/10 07:04:10;;;;;;;160.63;148.50;;;5.10;99.90;;;;;;6136973;23;20727;-80
2021/03/10 07:06:40;;;;;;;149.90;139.10;;;5.20;99.90;;;;;;6134722;23;20521;-82
2021/03/10 07:09:12;;;;;;;156.27;144.67;;;5.20;99.90;;;;;;6126538;23;20407;-82
2021/03/10 07:11:43;;;;;;;146.00;134.73;;;5.20;99.90;;;;;;6137209;23;20407;-82
2021/03/10 07:14:14;;;;;;;138.23;127.23;;;5.30;99.90;;;;;;6136756;23;20465;-82
2021/03/10 07:16:41;;;;;;;132.63;122.43;;;5.20;99.90;;;;;;6126989;23;20709;-82
2021/03/10 07:19:11;;;;;;;132.20;121.47;;;5.30;99.90;;;;;;6126224;23;20431;-82
2021/03/10 07:21:52;;;;;;;131.90;121.67;;;5.40;99.90;;;;;;6134913;23;20418;-82
2021/03/10 07:24:36;;;;;;;127.00;117.50;;;5.40;99.90;;;;;;6136112;23;20899;-82
2021/03/10 07:27:06;;;;;;;123.43;113.63;;;5.30;99.90;;;;;;6135816;23;20505;-83
2021/03/10 07:29:37;;;;;;;122.70;112.70;;;5.30;99.90;;;;;;6126282;23;20439;-83
2021/03/10 07:32:10;;;;;;;125.47;115.33;;;5.40;99.90;;;;;;6125702;23;20875;-83
2021/03/10 07:34:37;;;;;;;114.27;105.07;;;5.30;99.90;;;;;;6136337;23;20409;-82
2021/03/10 07:37:16;;;;;;;111.27;101.80;;;5.30;99.90;;;;;;6125413;23;20403;-82
2021/03/10 07:39:47;;;;;;;103.03;94.53;;;5.40;99.90;;;;;;6126763;23;20399;-82
2021/03/10 07:42:17;;;;;;;95.57;87.17;;;5.30;99.90;;;;;;6126213;23;20399;-82
2021/03/10 07:44:57;;;;;;;93.20;84.53;;;5.40;99.90;;;;;;6136200;23;20422;-81
2021/03/10 07:47:28;;;;;;;84.00;76.40;;;5.30;99.90;;;;;;6136489;23;20793;-83
2021/03/10 07:52:54;;;;;;;88.43;79.57;;;5.50;99.90;;;;;;6113874;23;20884;-82
2021/03/10 07:55:21;;;;;;;81.33;73.37;;;5.40;99.90;;;;;;6126435;23;20404;-82
2021/03/10 07:57:58;;;;;;;78.53;70.43;;;5.50;99.90;;;;;;6136072;23;20442;-82
2021/03/10 08:00:38;;;;;;;73.47;66.70;;;5.60;99.90;;;;;;6126878;23;20430;-82
2021/03/10 08:03:16;;;;;;;;;;;;;;;;;;;;;
2021/03/10 08:05:43;;;;;;;78.43;70.50;;;5.70;99.90;;;;;;6136287;23;20399;-82
2021/03/10 08:08:32;;;;;;;73.40;65.67;;;5.80;99.90;;;;;;6122899;23;20438;-81
2021/03/10 08:14:58;;;;;;;;;;;;;;;;;;;;;
2021/03/10 08:21:38;;;;;;;;;;;;;;;;;;;;;
2021/03/10 08:24:23;;;;;;;77.30;54.37;;;6.40;99.90;;;;;;6034721;23;20433;-83
2021/03/10 08:30:27;;;;;;;64.93;43.83;;;6.70;99.90;;;;;;6135706;23;20431;-83
2021/03/10 08:33:14;;;;;;;63.27;40.80;;;6.90;99.90;;;;;;6125990;23;20398;-82
2021/03/10 08:35:53;;;;;;;58.80;37.10;;;7.10;99.90;;;;;;6135940;23;20419;-83
2021/03/10 08:38:20;;;;;;;55.40;34.40;;;7.10;99.90;;;;;;6124455;23;20403;-82
2021/03/10 08:41:23;;;;;;;53.97;32.37;;;7.20;99.90;;;;;;6126074;23;20407;-83
2021/03/10 08:44:03;;;;;;;55.60;33.33;;;7.30;99.90;;;;;;6040879;23;20417;-83
2021/03/10 08:47:28;;;;;;;;;;;;;;;;;;;;;
2021/03/10 08:50:18;;;;;;;;;;;;;;;;;;;;;
2021/03/10 08:53:09;;;;;;;57.60;33.60;;;7.70;99.90;;;;;;6073648;23;20476;-82
2021/03/10 08:56:06;;;;;;;;;;;;;;;;;;;;;
2021/03/10 09:01:58;;;;;;;65.60;38.40;;;8.00;99.90;;;;;;5932653;24;20421;-83
2021/03/10 09:04:38;;;;;;;60.97;33.30;;;8.00;99.90;;;;;;5960109;23;20464;-83
2021/03/10 09:10:27;;;;;;;57.90;31.80;;;8.00;99.90;;;;;;5911140;24;20841;-83
2021/03/10 09:20:05;;;;;;;;;;;;;;;;;;;;;
2021/03/10 09:26:06;;;;;;;54.47;33.37;;;8.50;99.90;;;;;;5976843;23;20416;-82
2021/03/10 09:32:13;;;;;;;52.00;30.40;;;8.80;99.90;;;;;;6019263;23;20501;-82
2021/03/10 10:58:34;;;;;;;29.30;12.83;;;11.30;25.50;;;;;;5661246;24;20520;-79
2021/03/10 11:17:00;;;;;;;31.10;14.63;;;11.70;20.50;;;;;;5743017;24;20468;-81
2021/03/10 11:19:27;;;;;;;27.57;11.97;;;11.60;21.00;;;;;;5931435;24;20445;-81
2021/03/10 11:22:03;;;;;;;;;;;;;;;;;;;;;
2021/03/10 11:24:40;;;;;;;27.07;12.50;;;11.30;17.30;;;;;;6077886;23;20407;-81
2021/03/10 11:27:30;;;;;;;;;;;;;;;;;;;;;
2021/03/10 11:30:05;;;;;;;28.20;12.67;;;11.40;18.70;;;;;;6095491;23;21037;-81
2021/03/10 11:32:57;;;;;;;25.23;11.77;;;11.40;20.40;;;;;;6107322;23;20411;-81
2021/03/10 11:35:39;;;;;;;21.60;9.00;;;11.50;18.90;;;;;;6092586;23;20506;-83
2021/03/10 11:38:07;;;;;;;22.70;8.70;;;11.60;13.70;;;;;;6096309;23;20752;-80
2021/03/10 11:40:34;;;;;;;21.23;8.83;;;11.70;16.30;;;;;;6107624;23;20875;-80
2021/03/10 11:43:00;;;;;;;22.77;8.60;;;11.80;12.10;;;;;;6097559;23;20547;-81
2021/03/10 11:45:26;;;;;;;22.10;10.03;;;11.90;16.10;;;;;;6097290;23;20436;-80
2021/03/10 11:47:54;;;;;;;20.00;6.90;;;12.00;14.60;;;;;;6117308;23;20804;-81
2021/03/10 11:50:20;;;;;;;18.50;7.90;;;12.10;9.80;;;;;;6136246;23;20414;-81
2021/03/10 11:52:48;;;;;;;18.03;6.10;;;12.10;10.10;;;;;;6134698;23;20801;-81
2021/03/10 11:55:19;;;;;;;18.10;6.80;;;12.00;7.90;;;;;;6136464;23;20415;-82
2021/03/10 11:57:52;;;;;;;20.60;6.23;;;12.50;6.80;;;;;;6136490;23;20454;-82
2021/03/10 12:00:19;;;;;;;17.67;5.00;;;12.40;6.80;;;;;;6126635;23;20491;-82
2021/03/10 12:02:49;;;;;;;19.43;6.33;;;12.20;6.20;;;;;;6126267;23;20462;-81
2021/03/10 12:05:17;;;;;;;21.87;6.07;;;12.20;8.50;;;;;;6136446;23;20740;-81
2021/03/10 12:07:48;;;;;;;17.63;5.40;;;12.20;8.00;;;;;;6124904;23;20438;-81
2021/03/10 12:10:15;;;;;;;17.53;5.70;;;12.60;5.40;;;;;;6122390;23;20887;-78
2021/03/10 12:12:42;;;;;;;18.47;5.37;;;12.70;8.40;;;;;;6124405;23;20898;-84
2021/03/10 12:15:11;;;;;;;18.13;5.60;;;12.60;5.90;;;;;;6125031;23;20431;-82
2021/03/10 12:17:38;;;;;;;17.60;5.03;;;12.40;6.60;;;;;;6134578;23;20435;-79
2021/03/10 12:20:09;;;;;;;20.10;5.60;;;12.40;5.50;;;;;;6124375;23;20418;-82
2021/03/10 12:22:55;;;;;;;18.93;5.53;;;12.20;3.40;;;;;;6122872;23;20439;-82
2021/03/10 12:25:21;;;;;;;21.00;7.00;;;12.30;7.50;;;;;;6109566;23;20437;-81
2021/03/10 12:27:48;;;;;;;19.70;7.30;;;12.20;6.10;;;;;;6134071;23;20403;-82
2021/03/10 12:30:17;;;;;;;17.20;5.60;;;12.30;5.60;;;;;;6134348;23;20411;-82
2021/03/10 12:32:52;;;;;;;18.83;5.93;;;12.50;3.90;;;;;;6124157;23;20395;-82
2021/03/10 12:35:27;;;;;;;18.23;6.80;;;12.50;3.60;;;;;;6123985;23;20485;-81
2021/03/10 12:37:54;;;;;;;22.67;6.23;;;12.80;3.80;;;;;;6132437;23;20501;-81
2021/03/10 12:40:30;;;;;;;19.50;6.43;;;12.60;2.40;;;;;;6124221;23;20407;-81
2021/03/10 12:42:56;;;;;;;16.70;6.40;;;12.50;4.60;;;;;;6124586;23;20413;-81
2021/03/10 12:45:26;;;;;;;24.67;8.13;;;12.60;5.40;;;;;;6124543;23;20435;-81
2021/03/10 12:47:53;;;;;;;22.33;8.70;;;12.60;4.60;;;;;;6123517;23;20438;-83
2021/03/10 12:50:30;;;;;;;23.20;7.77;;;12.50;5.20;;;;;;6123786;23;20399;-80
2021/03/10 12:53:03;;;;;;;19.60;8.27;;;12.70;5.60;;;;;;6124431;23;20438;-80
2021/03/10 12:55:54;;;;;;;;;;;;;;;;;;;;;
2021/03/10 12:58:40;;;;;;;21.90;10.57;;;12.90;6.10;;;;;;6124651;23;20438;-82
2021/03/10 13:01:06;;;;;;;26.33;10.13;;;12.60;6.90;;;;;;6135665;23;20509;-80
2021/03/10 13:03:33;;;;;;;21.97;9.10;;;12.50;6.20;;;;;;6136132;23;20438;-81
2021/03/10 13:06:00;;;;;;;23.77;10.13;;;12.50;7.20;;;;;;6125951;23;20403;-80
2021/03/10 13:08:29;;;;;;;23.37;8.60;;;12.60;6.40;;;;;;6124905;23;20407;-81
2021/03/10 13:11:01;;;;;;;27.80;10.67;;;12.50;6.80;;;;;;6126453;23;20403;-81
2021/03/10 13:13:27;;;;;;;25.53;9.77;;;12.60;5.40;;;;;;6126606;23;20399;-81
2021/03/10 13:15:56;;;;;;;20.80;9.50;;;12.70;6.90;;;;;;6126373;23;20458;-80
2021/03/10 13:18:22;;;;;;;21.77;9.80;;;12.80;6.20;;;;;;6135903;23;20505;-81
2021/03/10 13:20:49;;;;;;;25.73;11.00;;;12.80;4.50;;;;;;6126073;23;20408;-81
2021/03/10 13:23:15;;;;;;;23.07;10.33;;;12.80;4.50;;;;;;6124519;23;20958;-81
2021/03/10 13:25:42;;;;;;;22.87;9.07;;;12.60;4.90;;;;;;6126540;23;20454;-81
2021/03/10 13:28:09;;;;;;;24.30;11.07;;;12.70;4.50;;;;;;6126369;23;20730;-81
2021/03/10 13:30:35;;;;;;;22.57;11.60;;;12.60;4.50;;;;;;6136033;23;20406;-80
2021/03/10 13:33:02;;;;;;;23.23;11.20;;;12.90;2.70;;;;;;6135810;23;20505;-80
2021/03/10 13:35:30;;;;;;;25.50;11.83;;;13.30;2.60;;;;;;6135708;23;20422;-80
2021/03/10 13:37:57;;;;;;;27.30;13.20;;;13.90;1.10;;;;;;6134744;23;20435;-81
2021/03/10 13:40:26;;;;;;;31.50;12.67;;;14.10;1.00;;;;;;6125881;23;20491;-81
2021/03/10 13:42:56;;;;;;;30.37;12.63;;;14.20;1.00;;;;;;6126311;23;20494;-82
2021/03/10 13:45:22;;;;;;;25.90;12.17;;;13.70;1.00;;;;;;6135599;23;20446;-82
2021/03/10 13:47:55;;;;;;;25.57;10.60;;;13.90;1.00;;;;;;6126064;23;20445;-81
2021/03/10 13:50:21;;;;;;;31.20;11.00;;;13.60;1.00;;;;;;6125812;23;20407;-81
2021/03/10 13:52:49;;;;;;;26.53;11.33;;;13.40;1.00;;;;;;6124508;23;20481;-81
2021/03/10 13:55:16;;;;;;;26.47;11.97;;;13.30;1.00;;;;;;6126214;23;20407;-82
2021/03/10 13:57:42;;;;;;;25.43;10.37;;;13.20;2.40;;;;;;6135503;23;20565;-81
2021/03/10 14:00:11;;;;;;;27.27;12.87;;;13.00;1.50;;;;;;6126035;23;20443;-81
2021/03/10 14:02:37;;;;;;;26.03;12.50;;;13.10;1.70;;;;;;6126174;23;20403;-81
2021/03/10 14:05:04;;;;;;;24.67;11.07;;;13.10;2.50;;;;;;6126179;23;20402;-82
2021/03/10 14:07:31;;;;;;;28.40;10.77;;;12.80;1.90;;;;;;6124666;23;20438;-81
2021/03/10 14:09:57;;;;;;;28.57;12.50;;;12.50;2.40;;;;;;6135669;23;20414;-81
2021/03/10 14:12:24;;;;;;;32.63;12.57;;;12.50;4.00;;;;;;6125957;23;20399;-81
2021/03/10 14:14:50;;;;;;;23.73;11.23;;;12.30;4.50;;;;;;6126236;23;20430;-81
2021/03/10 14:17:17;;;;;;;26.97;12.67;;;12.20;4.20;;;;;;6126954;23;20480;-81
2021/03/10 14:19:43;;;;;;;26.83;12.23;;;12.20;6.50;;;;;;6127878;23;20442;-81
2021/03/10 14:22:10;;;;;;;30.23;13.60;;;12.10;5.60;;;;;;6136300;23;20414;-81
2021/03/10 14:24:36;;;;;;;29.13;12.07;;;12.20;6.10;;;;;;6127511;23;20506;-81
2021/03/10 14:27:03;;;;;;;24.87;11.43;;;12.00;8.30;;;;;;6127370;23;20884;-81
2021/03/10 14:29:29;;;;;;;25.13;12.40;;;11.90;6.90;;;;;;6127554;23;20495;-80
2021/03/10 14:31:55;;;;;;;25.90;11.83;;;11.90;7.90;;;;;;6127764;23;20493;-80
2021/03/10 14:34:22;;;;;;;23.20;10.40;;;11.90;7.60;;;;;;6127888;23;20447;-81
2021/03/10 14:36:49;;;;;;;21.57;10.40;;;11.70;6.00;;;;;;6126095;23;20427;-81
2021/03/10 14:39:16;;;;;;;25.30;10.63;;;11.60;6.20;;;;;;6127584;23;20427;-81
2021/03/10 14:41:42;;;;;;;26.13;8.67;;;11.60;5.00;;;;;;6126885;23;20404;-81
2021/03/10 14:44:08;;;;;;;22.70;7.33;;;11.50;6.10;;;;;;6137366;23;20455;-81
2021/03/10 14:46:35;;;;;;;24.27;9.50;;;11.50;3.90;;;;;;6137192;23;20453;-80
2021/03/10 14:49:23;;;;;;;21.90;9.70;;;11.50;5.40;;;;;;6127474;23;20742;-81
2021/03/10 14:51:50;;;;;;;24.17;10.57;;;11.50;4.50;;;;;;6119240;23;20982;-81
2021/03/10 14:54:17;;;;;;;18.87;8.07;;;11.50;4.60;;;;;;6127054;23;20460;-81
2021/03/10 14:56:43;;;;;;;23.43;10.00;;;11.40;5.40;;;;;;6127312;23;20450;-80
2021/03/10 14:59:09;;;;;;;22.97;9.70;;;11.30;7.60;;;;;;6127333;23;20457;-80
2021/03/10 15:04:18;;;;;;;25.43;10.60;;;11.30;11.00;;;;;;6125558;23;20407;-81
2021/03/10 15:06:46;;;;;;;24.03;9.93;;;11.20;7.60;;;;;;6135215;23;20399;-81
2021/03/10 15:09:13;;;;;;;21.03;9.33;;;11.30;7.20;;;;;;6126926;23;20410;-80
2021/03/10 15:11:42;;;;;;;23.67;11.83;;;11.20;7.10;;;;;;6126941;23;20411;-81
2021/03/10 15:14:09;;;;;;;21.90;9.17;;;11.20;5.90;;;;;;6127283;23;20403;-80
2021/03/10 15:16:40;;;;;;;20.33;9.57;;;11.20;6.50;;;;;;6127148;23;20399;-81
2021/03/10 15:19:06;;;;;;;25.37;12.20;;;11.10;6.30;;;;;;6127179;23;20399;-80
2021/03/10 15:21:34;;;;;;;21.97;10.60;;;11.10;8.80;;;;;;6125786;23;20430;-81
2021/03/10 15:26:37;;;;;;;28.13;10.47;;;11.10;8.40;;;;;;6124202;23;20930;-83
2021/03/10 15:29:04;;;;;;;22.27;8.63;;;11.00;8.50;;;;;;6136413;23;20450;-83
2021/03/10 15:31:31;;;;;;;23.37;9.40;;;11.00;9.10;;;;;;6126956;23;20490;-83